Terminal Aerodrome Forecast
Issued by NWS Charleston, WV

Current Version | Previous Version | Graphics & Text | Print | Product List | Glossary On
Versions: 1 2 3 4 5 6 7 8 9 10 11 12 13 14 15 16 17 18 19 20 21 22 23 24 25
000
FTUS41 KRLX 280539
TAFEKN
TAF
KEKN 280539Z 2806/2906 00000KT P6SM BKN040
     FM280800 00000KT 3SM BR SCT050
     FM280900 00000KT 1/4SM FG SCT001
     FM281400 VRB03KT P6SM FEW001
     FM281700 23005KT P6SM FEW150=

USA.gov is the U.S. government's official web portal to all federal, state and local government web resources and services.